Time;durP1;ratioP1;P1;durP2;ratioP2;P2;SDS_P1;SDS_P2;PMS_P1;PMS_P2;Temp;Humidity;BMP_temperature;BMP_pressure;BME280_temperature;BME280_humidity;BME280_pressure;Samples;Min_cycle;Max_cycle;Signal;HPM_P1;HPM_P2
2021/01/23 00:01:12;;;;;;;28.35;19.02;;;;;;;-1.51;83.68;99973.22;1722378;82;21372;-75
2021/01/23 00:03:40;;;;;;;26.12;18.20;;;;;;;-1.53;83.71;99979.64;1725542;82;21236;-75
2021/01/23 00:06:09;;;;;;;27.22;17.75;;;;;;;-1.56;83.75;99979.52;1729923;81;21184;-74
2021/01/23 00:08:36;;;;;;;26.10;18.32;;;;;;;-1.53;83.80;99985.69;1724246;82;21187;-76
2021/01/23 00:11:04;;;;;;;28.77;18.65;;;;;;;-1.53;83.83;99983.58;1753875;80;21261;-75
2021/01/23 00:13:32;;;;;;;29.00;18.92;;;;;;;-1.53;83.85;99991.44;1758443;80;21295;-73
2021/01/23 00:16:00;;;;;;;25.80;18.15;;;;;;;-1.51;83.88;99996.80;1763950;80;21230;-74
2021/01/23 00:18:27;;;;;;;26.12;17.90;;;;;;;-1.52;83.89;99987.80;1756156;80;21161;-74
2021/01/23 00:20:55;;;;;;;26.57;17.92;;;;;;;-1.50;83.92;99980.06;1771656;80;21150;-76
2021/01/23 00:23:23;;;;;;;25.88;18.17;;;;;;;-1.46;83.97;99978.67;1762656;80;21722;-74
2021/01/23 00:25:51;;;;;;;25.62;17.90;;;;;;;-1.41;83.99;99974.19;1764728;79;22291;-73
2021/01/23 00:28:19;;;;;;;25.52;16.65;;;;;;;-1.39;84.00;99969.55;1769689;80;21182;-74
2021/01/23 00:30:46;;;;;;;21.68;15.95;;;;;;;-1.36;84.01;99972.28;1775157;80;21175;-74
2021/01/23 00:33:14;;;;;;;22.93;17.37;;;;;;;-1.35;84.06;99969.48;1759203;80;21211;-73
2021/01/23 00:35:43;;;;;;;23.15;17.23;;;;;;;-1.35;84.10;99966.87;1763786;80;21552;-74
2021/01/23 00:38:11;;;;;;;24.05;16.77;;;;;;;-1.33;84.17;99970.59;1778094;80;21394;-74
2021/01/23 00:40:38;;;;;;;24.02;16.80;;;;;;;-1.30;84.25;99973.63;1777228;80;21214;-76
2021/01/23 00:43:06;;;;;;;22.67;16.48;;;;;;;-1.28;84.30;99969.02;1771504;80;21178;-74
2021/01/23 00:45:34;;;;;;;25.37;16.60;;;;;;;-1.23;84.33;99977.59;1768601;80;21159;-74
2021/01/23 00:48:10;;;;;;;26.55;17.57;;;;;;;-1.20;84.37;99971.97;1765289;80;21190;-73
2021/01/23 00:50:39;;;;;;;26.82;17.30;;;;;;;-1.16;84.43;99975.01;1766323;80;21333;-74
2021/01/23 00:53:08;;;;;;;26.60;17.80;;;;;;;-1.13;84.50;99962.32;1770124;80;21169;-75
2021/01/23 00:55:36;;;;;;;24.70;16.87;;;;;;;-1.07;84.55;99959.43;1769901;80;22230;-74
2021/01/23 00:58:04;;;;;;;25.65;16.93;;;;;;;-1.01;84.58;99967.32;1774232;79;21178;-73
2021/01/23 01:00:32;;;;;;;24.55;16.42;;;;;;;-0.96;84.59;99968.03;1767217;80;21135;-73
2021/01/23 01:03:01;;;;;;;24.85;16.85;;;;;;;-0.92;84.63;99960.10;1743089;80;22404;-74
2021/01/23 01:05:38;;;;;;;24.55;17.52;;;;;;;-0.87;84.63;99962.13;1732536;82;21201;-73
2021/01/23 01:08:07;;;;;;;21.52;15.95;;;;;;;-0.85;84.60;99958.31;1719432;82;21607;-73
2021/01/23 01:10:35;;;;;;;24.12;16.48;;;;;;;-0.84;84.55;99959.91;1715457;82;21179;-74
2021/01/23 01:13:04;;;;;;;23.83;15.58;;;;;;;-0.83;84.52;99961.52;1728396;82;21215;-74
2021/01/23 01:15:39;;;;;;;22.43;15.65;;;;;;;-0.87;84.35;99962.93;1689695;81;9999659;-74
2021/01/23 01:18:08;;;;;;;22.67;16.30;;;;;;;-0.95;84.52;99955.25;1721531;81;22323;-72
2021/01/23 01:20:36;;;;;;;23.67;16.48;;;;;;;-0.97;84.30;99963.30;1721645;82;21634;-73
2021/01/23 01:23:04;;;;;;;23.45;15.40;;;;;;;-1.02;84.27;99963.09;1728825;82;22352;-75
2021/01/23 01:25:33;;;;;;;23.65;16.20;;;;;;;-1.03;84.25;99961.96;1726310;81;21044;-74
2021/01/23 01:28:01;;;;;;;22.67;16.20;;;;;;;-1.06;84.21;99958.42;1724150;82;21289;-74
2021/01/23 01:30:29;;;;;;;23.45;16.20;;;;;;;-1.12;84.18;99961.81;1739661;82;21476;-75
2021/01/23 01:32:57;;;;;;;23.70;16.48;;;;;;;-1.14;84.26;99961.22;1732093;82;21870;-75
2021/01/23 01:35:26;;;;;;;22.75;15.80;;;;;;;-1.11;84.32;99973.94;1732205;82;21187;-73
2021/01/23 01:37:54;;;;;;;24.72;17.07;;;;;;;-1.08;84.38;99973.55;1732081;82;21769;-76
2021/01/23 01:40:23;;;;;;;22.37;15.85;;;;;;;-1.06;84.40;99962.34;1735400;81;21199;-74
2021/01/23 01:42:51;;;;;;;22.42;15.70;;;;;;;-1.05;84.42;99960.86;1733235;82;21623;-73
2021/01/23 01:45:19;;;;;;;25.37;16.87;;;;;;;-1.03;84.48;99973.25;1722337;82;21569;-73
2021/01/23 01:47:46;;;;;;;23.92;15.75;;;;;;;-1.00;84.53;99968.93;1770898;80;21198;-72
2021/01/23 01:50:15;;;;;;;22.37;15.03;;;;;;;-0.97;84.59;99954.63;1746700;82;21264;-73
2021/01/23 01:52:43;;;;;;;23.60;15.60;;;;;;;-0.94;84.62;99952.92;1765475;80;21296;-73
2021/01/23 01:55:12;;;;;;;24.75;15.83;;;;;;;-0.93;84.61;99951.91;1765866;80;22275;-73
2021/01/23 01:57:40;;;;;;;22.62;15.50;;;;;;;-0.92;84.56;99957.48;1760594;80;21207;-72
2021/01/23 02:00:11;;;;;;;23.00;14.93;;;;;;;-0.92;84.50;99958.80;1768306;80;21214;-72
2021/01/23 02:03:06;;;;;;;21.85;15.60;;;;;;;-0.92;84.44;99973.22;1735610;81;21213;-73
2021/01/23 02:05:59;;;;;;;22.30;15.63;;;;;;;-0.89;84.42;99973.30;1713592;82;21187;-72
2021/01/23 02:08:41;;;;;;;23.62;15.80;;;;;;;-0.84;84.42;99969.59;1722646;82;21213;-71
2021/01/23 02:11:31;;;;;;;23.02;15.90;;;;;;;-0.82;84.40;99968.41;1734288;82;21615;-72
2021/01/23 02:14:16;;;;;;;21.10;15.03;;;;;;;-0.77;84.38;99962.56;1716437;82;21611;-72
2021/01/23 02:16:46;;;;;;;20.15;13.93;;;;;;;-0.79;84.28;99954.91;1718566;82;21171;-73
2021/01/23 02:19:55;;;;;;;20.70;13.78;;;;;;;-0.85;84.19;99948.33;1743471;82;21209;-72
2021/01/23 02:22:50;;;;;;;22.35;15.05;;;;;;;-0.99;84.22;99944.83;1728569;82;21585;-73
2021/01/23 02:25:18;;;;;;;20.10;14.55;;;;;;;-1.05;84.43;99949.06;1725802;81;21201;-72
2021/01/23 02:28:13;;;;;;;22.27;14.95;;;;;;;-1.02;84.61;99952.61;1726535;82;21261;-72
2021/01/23 02:30:45;;;;;;;21.83;14.90;;;;;;;-0.95;84.72;99949.50;1643520;80;10000343;-72
2021/01/23 02:33:13;;;;;;;21.82;15.23;;;;;;;-0.86;84.83;99960.60;1746867;80;21377;-73
2021/01/23 02:35:42;;;;;;;22.67;14.73;;;;;;;-0.80;84.89;99962.44;1752924;80;21198;-73
2021/01/23 02:38:10;;;;;;;22.60;15.58;;;;;;;-0.71;84.92;99974.38;1763766;80;21650;-73
2021/01/23 02:40:37;;;;;;;22.25;15.78;;;;;;;-0.63;84.97;99972.58;1760873;80;21281;-74
2021/01/23 02:43:07;;;;;;;21.48;14.55;;;;;;;-0.54;84.96;99974.02;1766567;80;21182;-73
2021/01/23 02:45:35;;;;;;;22.75;15.08;;;;;;;-0.47;84.96;99969.08;1767616;80;21370;-71
2021/01/23 02:48:04;;;;;;;21.73;15.00;;;;;;;-0.39;84.89;99967.30;1763623;80;21215;-72
2021/01/23 02:50:32;;;;;;;19.27;14.18;;;;;;;-0.34;84.80;99957.80;1756862;80;21245;-73
2021/01/23 02:53:10;;;;;;;25.05;16.12;;;;;;;-0.41;84.69;99947.80;1762348;80;21170;-71
2021/01/23 02:55:40;;;;;;;22.82;15.18;;;;;;;-0.45;84.69;99950.53;1776281;80;21191;-72
2021/01/23 02:58:07;;;;;;;24.57;15.72;;;;;;;-0.41;84.72;99957.50;1747854;80;21208;-73
2021/01/23 03:00:35;;;;;;;23.10;15.43;;;;;;;-0.36;84.74;99962.45;1760313;80;21678;-73
2021/01/23 03:03:03;;;;;;;27.82;16.27;;;;;;;-0.32;84.72;99960.23;1757087;80;21211;-74
2021/01/23 03:05:33;;;;;;;22.50;15.10;;;;;;;-0.29;84.67;99955.40;1777859;80;21646;-72
2021/01/23 03:08:01;;;;;;;21.07;15.38;;;;;;;-0.29;84.59;99972.45;1770639;80;21210;-71
2021/01/23 03:10:41;;;;;;;23.32;15.85;;;;;;;-0.29;84.57;99970.34;1755561;80;21549;-73
2021/01/23 03:13:10;;;;;;;23.10;15.48;;;;;;;-0.28;84.54;99966.70;1753996;80;22361;-73
2021/01/23 03:15:38;;;;;;;21.52;15.10;;;;;;;-0.27;84.47;99976.98;1748728;80;21646;-71
2021/01/23 03:18:08;;;;;;;24.92;15.70;;;;;;;-0.24;84.42;99981.83;1761308;80;21182;-72
2021/01/23 03:20:36;;;;;;;23.67;15.38;;;;;;;-0.21;84.33;99989.81;1766199;80;21672;-73
2021/01/23 03:23:05;;;;;;;26.90;16.93;;;;;;;-0.22;84.24;99990.83;1749680;80;22299;-72
2021/01/23 03:25:34;;;;;;;22.73;15.53;;;;;;;-0.24;84.20;99988.39;1778961;80;21178;-73
2021/01/23 03:28:02;;;;;;;22.93;15.58;;;;;;;-0.23;84.14;99983.98;1773835;80;21167;-73
2021/01/23 03:30:32;;;;;;;20.37;15.58;;;;;;;-0.22;84.05;99969.84;1763850;80;21650;-72
2021/01/23 03:33:00;;;;;;;21.82;15.38;;;;;;;-0.24;83.91;99976.58;1756361;80;21175;-72
2021/01/23 03:35:28;;;;;;;23.25;15.65;;;;;;;-0.26;83.80;99966.81;1768203;80;21737;-72
2021/01/23 03:37:56;;;;;;;21.40;15.32;;;;;;;-0.32;83.67;99967.61;1771215;80;21185;-72
2021/01/23 03:40:27;;;;;;;20.88;15.30;;;;;;;-0.35;83.58;99972.45;1764978;80;21166;-73
2021/01/23 03:42:54;;;;;;;22.45;15.50;;;;;;;-0.41;83.53;99979.29;1762691;80;21183;-73
2021/01/23 03:45:22;;;;;;;25.40;16.42;;;;;;;-0.42;83.49;99981.62;1697827;83;21448;-72
2021/01/23 03:47:50;;;;;;;22.20;15.70;;;;;;;-0.42;83.48;99975.56;1718038;81;21527;-72
2021/01/23 03:50:18;;;;;;;25.92;16.62;;;;;;;-0.43;83.45;99983.92;1737676;82;21301;-73
2021/01/23 03:52:46;;;;;;;26.57;16.40;;;;;;;-0.43;83.41;99981.30;1734308;82;21223;-72
2021/01/23 03:55:15;;;;;;;21.65;15.75;;;;;;;-0.46;83.28;99981.72;1729639;82;21179;-72
2021/01/23 03:57:43;;;;;;;25.95;16.82;;;;;;;-0.49;83.22;99978.18;1722771;82;22201;-73
2021/01/23 04:00:14;;;;;;;23.45;16.40;;;;;;;-0.51;83.19;99975.73;1722451;82;21171;-72
2021/01/23 04:02:42;;;;;;;26.82;17.87;;;;;;;-0.54;83.12;99963.53;1724678;82;21204;-71
2021/01/23 04:05:13;;;;;;;27.60;17.52;;;;;;;-0.58;83.07;99972.80;1721651;82;22220;-72
2021/01/23 04:07:41;;;;;;;23.32;15.80;;;;;;;-0.62;83.01;99970.28;1724536;82;21219;-71
2021/01/23 04:10:13;;;;;;;25.80;15.68;;;;;;;-0.65;82.94;99970.16;1725426;82;21246;-72
2021/01/23 04:12:41;;;;;;;23.90;16.32;;;;;;;-0.74;82.81;99970.84;1726593;82;21380;-71
2021/01/23 04:15:11;;;;;;;23.75;15.68;;;;;;;-0.81;82.67;99981.81;1716058;82;21234;-72
2021/01/23 04:17:41;;;;;;;25.40;15.88;;;;;;;-0.87;82.62;99966.86;1728091;82;21195;-72
2021/01/23 04:20:10;;;;;;;22.60;14.90;;;;;;;-0.99;82.51;99976.28;1727585;82;21230;-72
2021/01/23 04:22:38;;;;;;;24.57;15.53;;;;;;;-1.11;82.54;99975.25;1728711;82;21151;-72
2021/01/23 04:25:08;;;;;;;23.18;16.12;;;;;;;-1.22;82.60;99977.42;1732519;81;21397;-71
2021/01/23 04:27:36;;;;;;;25.15;17.37;;;;;;;-1.24;82.72;99984.66;1717192;82;21119;-73
2021/01/23 04:30:11;;;;;;;24.10;16.55;;;;;;;-1.22;82.81;99981.83;1726211;82;21203;-73
2021/01/23 04:32:40;;;;;;;40.63;18.27;;;;;;;-1.23;82.83;99983.64;1719981;82;21198;-72
2021/01/23 04:35:31;;;;;;;25.45;17.23;;;;;;;-1.22;82.88;99974.80;1727184;82;21236;-74
2021/01/23 04:37:59;;;;;;;22.67;15.13;;;;;;;-1.21;82.92;99969.86;1800959;78;21199;-73
2021/01/23 04:40:28;;;;;;;25.50;17.25;;;;;;;-1.23;82.93;99967.92;1794782;78;21209;-74
2021/01/23 04:42:55;;;;;;;26.75;16.10;;;;;;;-1.33;82.95;99964.05;1787684;80;21171;-72
2021/01/23 04:45:25;;;;;;;25.27;17.20;;;;;;;-1.42;83.12;99970.73;1762573;80;21202;-73
2021/01/23 04:47:55;;;;;;;24.15;17.10;;;;;;;-1.47;83.28;99972.34;1757032;81;21637;-72
2021/01/23 04:50:23;;;;;;;26.40;17.95;;;;;;;-1.42;83.53;99972.55;1764018;80;22325;-72
2021/01/23 04:52:51;;;;;;;26.23;17.77;;;;;;;-1.36;83.64;99982.27;1763571;80;21175;-73
2021/01/23 04:55:18;;;;;;;25.20;17.62;;;;;;;-1.29;83.74;99983.09;1772312;80;21199;-72
2021/01/23 04:57:47;;;;;;;25.80;17.37;;;;;;;-1.22;83.77;99989.20;1729964;81;21207;-73
2021/01/23 05:00:16;;;;;;;25.92;17.73;;;;;;;-1.19;83.78;99987.48;1755371;80;21638;-73
2021/01/23 05:03:01;;;;;;;26.52;18.67;;;;;;;-1.17;83.78;99984.69;1761272;80;21289;-73
2021/01/23 05:05:30;;;;;;;28.77;19.17;;;;;;;-1.20;83.78;99983.25;1767446;80;21176;-73
2021/01/23 05:08:12;;;;;;;30.37;19.75;;;;;;;-1.21;83.76;99987.39;1758162;81;21683;-73
2021/01/23 05:10:42;;;;;;;28.10;18.40;;;;;;;-1.29;83.78;99987.53;1745958;81;21247;-72
2021/01/23 05:13:14;;;;;;;28.73;18.07;;;;;;;-1.30;83.88;99988.05;1745341;80;21188;-72
2021/01/23 05:15:46;;;;;;;27.67;18.12;;;;;;;-1.30;83.91;99989.86;1744036;81;21504;-72
2021/01/23 05:18:14;;;;;;;28.00;18.32;;;;;;;-1.30;83.95;99991.16;1752066;81;21184;-72
2021/01/23 05:20:50;;;;;;;25.82;17.25;;;;;;;-1.32;83.98;99992.66;1729339;80;21262;-72
2021/01/23 05:23:25;;;;;;;24.52;17.07;;;;;;;-1.32;83.99;100001.02;1743621;81;21499;-72
2021/01/23 05:25:57;;;;;;;26.15;18.02;;;;;;;-1.35;84.06;99996.16;1733378;81;21184;-72
2021/01/23 05:28:38;;;;;;;26.50;17.77;;;;;;;-1.33;84.15;100005.45;1731211;81;21478;-72
2021/01/23 05:31:15;;;;;;;26.30;17.65;;;;;;;-1.31;84.19;100007.90;1746757;81;21187;-72
2021/01/23 05:33:44;;;;;;;24.90;17.05;;;;;;;-1.29;84.23;100010.61;1721891;80;21199;-73
2021/01/23 05:36:14;;;;;;;25.82;17.70;;;;;;;-1.27;84.25;100007.31;1728873;81;21048;-72
2021/01/23 05:38:44;;;;;;;27.35;18.17;;;;;;;-1.25;84.29;100001.86;1745213;81;22122;-73
2021/01/23 05:41:14;;;;;;;27.55;17.73;;;;;;;-1.24;84.24;99992.52;1747156;80;22462;-73
2021/01/23 05:43:48;;;;;;;22.95;16.45;;;;;;;-1.24;84.21;100000.37;1741711;81;21183;-72
2021/01/23 05:46:30;;;;;;;27.22;18.42;;;;;;;-1.28;84.18;99993.91;1731077;81;21155;-71
2021/01/23 05:48:58;;;;;;;25.40;17.20;;;;;;;-1.30;84.18;99990.66;1754060;81;21241;-72
2021/01/23 05:51:26;;;;;;;25.52;17.37;;;;;;;-1.38;84.08;99992.14;1743547;80;21163;-73
2021/01/23 05:53:54;;;;;;;25.10;17.17;;;;;;;-1.41;84.11;99997.77;1761571;80;21389;-73
2021/01/23 05:56:22;;;;;;;26.52;17.95;;;;;;;-1.41;84.10;99996.45;1766347;80;21196;-72
2021/01/23 05:58:49;;;;;;;28.02;18.62;;;;;;;-1.49;84.06;99994.77;1782700;80;21187;-72
2021/01/23 06:01:22;;;;;;;25.02;16.95;;;;;;;-1.50;84.06;99997.09;1753798;80;21139;-73
2021/01/23 06:03:53;;;;;;;28.05;18.37;;;;;;;-1.51;84.03;99999.41;1763597;80;21159;-72
2021/01/23 06:06:21;;;;;;;28.62;18.30;;;;;;;-1.48;84.04;99997.72;1771317;80;21269;-72
2021/01/23 06:08:52;;;;;;;25.97;17.07;;;;;;;-1.46;84.03;99996.20;1744209;81;21186;-73
2021/01/23 06:11:27;;;;;;;26.05;17.48;;;;;;;-1.46;83.97;99997.01;1731983;81;21220;-72
2021/01/23 06:13:56;;;;;;;29.82;18.92;;;;;;;-1.46;83.91;100007.99;1743996;81;21168;-72
2021/01/23 06:16:37;;;;;;;26.05;18.37;;;;;;;-1.51;83.87;100005.16;1741150;81;21702;-73
2021/01/23 06:19:20;;;;;;;27.27;17.75;;;;;;;-1.52;83.89;100005.63;1754754;81;22476;-71
2021/01/23 06:21:49;;;;;;;27.17;18.17;;;;;;;-1.53;83.83;100003.22;1743625;81;21207;-73
2021/01/23 06:24:21;;;;;;;29.70;18.52;;;;;;;-1.54;83.83;100005.03;1738954;81;21235;-73
2021/01/23 06:26:58;;;;;;;27.73;19.50;;;;;;;-1.55;83.83;100002.59;1737932;81;21631;-73
2021/01/23 06:29:43;;;;;;;29.27;19.27;;;;;;;-1.53;83.86;100013.69;1725938;81;21663;-73
2021/01/23 06:32:19;;;;;;;25.97;19.30;;;;;;;-1.48;83.97;100013.91;1745954;81;21181;-73
2021/01/23 06:35:00;;;;;;;29.02;18.85;;;;;;;-1.39;84.02;100011.96;1753571;80;21530;-73
2021/01/23 06:37:37;;;;;;;27.42;18.95;;;;;;;-1.32;84.05;100010.99;1709533;82;21618;-73
2021/01/23 06:40:29;;;;;;;27.45;18.35;;;;;;;-1.24;84.10;100017.41;1737875;81;21191;-72
2021/01/23 06:42:57;;;;;;;26.52;18.32;;;;;;;-1.20;84.12;100014.70;1700951;82;21184;-72
2021/01/23 06:45:28;;;;;;;27.87;18.60;;;;;;;-1.13;84.07;100016.05;1737884;80;21298;-72
2021/01/23 06:47:57;;;;;;;27.87;19.00;;;;;;;-1.08;83.99;100014.17;1746270;81;21155;-71
2021/01/23 06:50:40;;;;;;;26.70;18.50;;;;;;;-1.02;83.98;100005.03;1743426;81;21183;-71
2021/01/23 06:53:21;;;;;;;27.70;18.73;;;;;;;-0.96;83.95;100005.53;1736904;81;21196;-72
2021/01/23 06:55:56;;;;;;;27.30;18.15;;;;;;;-0.95;83.88;100005.86;1754918;80;21138;-73
2021/01/23 06:58:29;;;;;;;25.90;16.93;;;;;;;-0.97;83.85;100007.05;1754737;81;21471;-72
2021/01/23 07:00:58;;;;;;;26.60;17.35;;;;;;;-0.97;83.91;100005.23;1741637;81;21194;-72
2021/01/23 07:03:30;;;;;;;24.75;16.90;;;;;;;-0.97;83.91;100015.72;1739486;81;21196;-72
2021/01/23 07:06:00;;;;;;;26.57;17.30;;;;;;;-0.92;83.98;100013.02;1753336;80;21195;-73
2021/01/23 07:08:30;;;;;;;28.70;18.02;;;;;;;-0.88;84.04;100011.64;1747598;81;21154;-73
2021/01/23 07:11:14;;;;;;;27.93;17.80;;;;;;;-0.80;84.15;100024.56;1751993;81;21634;-72
2021/01/23 07:14:04;;;;;;;27.67;19.12;;;;;;;-0.70;84.26;100028.94;1725493;81;22329;-72
2021/01/23 07:16:39;;;;;;;27.02;17.48;;;;;;;-0.55;84.36;100039.30;1760856;81;21239;-72
2021/01/23 07:19:08;;;;;;;29.00;19.20;;;;;;;-0.37;84.43;100034.30;1760150;81;21146;-72
2021/01/23 07:21:41;;;;;;;28.75;19.62;;;;;;;-0.20;84.44;100036.55;1752303;79;21155;-72
2021/01/23 07:24:10;;;;;;;28.32;19.15;;;;;;;-0.07;84.37;100030.01;1740027;79;22330;-73
2021/01/23 07:26:40;;;;;;;26.75;18.25;;;;;;;0.04;84.29;100037.31;1768726;79;21088;-72
2021/01/23 07:29:08;;;;;;;25.23;17.77;;;;;;;0.15;84.17;100044.58;1744493;81;21581;-72
2021/01/23 07:31:36;;;;;;;25.72;18.52;;;;;;;0.25;84.13;100040.75;1740419;79;21214;-73
2021/01/23 07:34:12;;;;;;;21.52;15.70;;;;;;;0.34;84.07;100037.72;1761556;79;21505;-72
2021/01/23 07:36:43;;;;;;;27.15;18.50;;;;;;;0.37;83.88;100040.45;1757939;79;21391;-72
2021/01/23 07:39:18;;;;;;;28.30;18.40;;;;;;;0.33;83.73;100041.84;1765574;80;21218;-73
2021/01/23 07:41:56;;;;;;;24.95;17.10;;;;;;;0.39;83.77;100038.41;1765812;79;21646;-73
2021/01/23 07:44:25;;;;;;;28.50;19.07;;;;;;;0.51;83.78;100039.42;1764586;79;21129;-72
2021/01/23 07:46:53;;;;;;;31.73;19.35;;;;;;;0.59;83.66;100032.66;1759312;81;21226;-72
2021/01/23 07:49:27;;;;;;;27.05;18.30;;;;;;;0.71;83.62;100027.57;1772163;79;21665;-72
2021/01/23 07:52:08;;;;;;;29.72;19.27;;;;;;;0.79;83.42;100020.80;1773444;79;21171;-72
2021/01/23 07:54:50;;;;;;;31.25;19.30;;;;;;;0.79;83.14;100017.33;1753967;80;21178;-73
2021/01/23 07:57:18;;;;;;;30.15;18.07;;;;;;;0.80;83.13;100017.14;1764034;79;21635;-74
2021/01/23 07:59:47;;;;;;;28.38;19.12;;;;;;;0.81;83.04;100014.80;1765852;79;21650;-72
2021/01/23 08:02:18;;;;;;;31.45;20.23;;;;;;;0.80;82.94;100011.08;1762190;81;21350;-73
2021/01/23 08:04:56;;;;;;;31.10;18.95;;;;;;;0.88;83.01;100020.05;1760350;79;22154;-72
2021/01/23 08:07:29;;;;;;;27.42;18.50;;;;;;;0.98;82.95;100019.11;1746819;79;21623;-73
2021/01/23 08:10:20;;;;;;;21.35;14.18;;;;;;;1.06;82.92;100024.15;1756306;81;21266;-73
2021/01/23 08:13:01;;;;;;;28.92;18.65;;;;;;;1.15;82.85;100016.34;1753647;81;21155;-73
2021/01/23 08:15:32;;;;;;;29.27;18.87;;;;;;;1.19;82.69;100019.36;1756777;79;22368;-72
2021/01/23 08:18:00;;;;;;;;;;;;;;;1.31;82.66;100018.17;1754315;79;21195;-73
2021/01/23 08:20:35;;;;;;;29.80;18.32;;;;;;;1.39;82.56;100024.53;1757229;80;20295;-76
2021/01/23 08:23:15;;;;;;;25.85;17.95;;;;;;;1.50;82.53;100020.42;1741029;81;21246;-73
2021/01/23 08:25:55;;;;;;;27.22;18.50;;;;;;;1.64;82.45;100039.87;1756930;79;21278;-73
2021/01/23 08:28:37;;;;;;;27.55;18.87;;;;;;;1.77;82.25;100055.30;1764461;79;21715;-73
2021/01/23 08:31:23;;;;;;;29.27;18.85;;;;;;;1.89;82.04;100057.56;1757020;81;21638;-73
2021/01/23 08:33:56;;;;;;;27.45;17.37;;;;;;;2.03;81.84;100051.19;1759722;79;21195;-73
2021/01/23 08:36:29;;;;;;;26.52;18.27;;;;;;;2.15;81.51;100048.69;1756146;79;21183;-73
2021/01/23 08:39:02;;;;;;;;;;;;;;;2.20;81.14;100051.98;1768800;79;21258;-73
2021/01/23 08:41:34;;;;;;;24.72;16.37;;;;;;;2.23;80.83;100054.99;1750467;79;21380;-74
2021/01/23 08:44:05;;;;;;;25.85;17.25;;;;;;;2.22;80.50;100050.75;1715010;81;21083;-73
2021/01/23 08:46:33;;;;;;;24.70;16.70;;;;;;;2.24;80.24;100047.92;1764984;79;21171;-71
2021/01/23 08:49:01;;;;;;;25.77;16.80;;;;;;;2.23;79.82;100037.86;1763092;80;21243;-71
2021/01/23 08:51:33;;;;;;;25.95;17.07;;;;;;;2.19;79.62;100040.64;1725855;81;21060;-73
2021/01/23 08:54:00;;;;;;;28.47;17.05;;;;;;;2.20;79.53;100046.71;1759617;79;22459;-71
2021/01/23 08:56:27;;;;;;;21.35;14.10;;;;;;;2.27;79.45;100042.19;1764027;79;21234;-72
2021/01/23 08:58:55;;;;;;;23.40;15.75;;;;;;;2.31;79.13;100039.45;1739519;81;21243;-73
2021/01/23 09:01:23;;;;;;;23.07;15.35;;;;;;;2.19;78.95;100034.56;1732169;81;21839;-75
2021/01/23 09:03:51;;;;;;;23.90;15.25;;;;;;;2.18;78.92;100038.23;1758916;79;21203;-75
2021/01/23 09:06:19;;;;;;;25.12;17.12;;;;;;;2.22;78.88;100042.84;1753593;81;21211;-74
2021/01/23 09:08:47;;;;;;;23.15;15.93;;;;;;;2.31;78.86;100038.13;1749703;79;21187;-72
2021/01/23 09:11:16;;;;;;;24.57;16.85;;;;;;;2.45;78.75;100031.71;1774262;79;21279;-71
2021/01/23 09:13:43;;;;;;;23.00;15.83;;;;;;;2.48;78.51;100027.84;1758538;79;21203;-72
2021/01/23 09:16:11;;;;;;;27.42;17.62;;;;;;;2.53;78.43;100023.55;1761798;79;21191;-71
2021/01/23 09:18:39;;;;;;;29.30;18.37;;;;;;;2.54;78.31;100023.83;1756551;80;21241;-72
2021/01/23 09:21:07;;;;;;;25.90;16.52;;;;;;;2.58;78.24;100027.64;1768676;79;21631;-73
2021/01/23 09:23:34;;;;;;;29.52;17.80;;;;;;;2.64;78.14;100027.80;1757844;81;21438;-74
2021/01/23 09:26:02;;;;;;;26.68;17.90;;;;;;;2.66;78.08;100027.86;1754575;79;21840;-74
2021/01/23 09:28:30;;;;;;;29.25;18.30;;;;;;;2.72;78.13;100026.99;1759615;80;21187;-73
2021/01/23 09:31:00;;;;;;;29.18;17.95;;;;;;;2.86;78.09;100014.98;1767529;79;21400;-73
2021/01/23 09:33:28;;;;;;;21.82;15.68;;;;;;;2.94;77.86;100023.42;1760331;79;21634;-74
2021/01/23 09:35:58;;;;;;;27.02;18.52;;;;;;;2.96;77.58;100021.39;1761525;79;21889;-74
2021/01/23 09:38:25;;;;;;;26.70;17.65;;;;;;;2.88;77.53;100028.26;1759022;79;21235;-75
2021/01/23 09:40:54;;;;;;;27.70;18.07;;;;;;;2.88;77.49;100027.45;1751536;80;21147;-76
2021/01/23 09:43:21;;;;;;;27.37;18.37;;;;;;;2.95;77.50;100024.23;1747905;79;21454;-75
2021/01/23 09:45:50;;;;;;;28.83;19.23;;;;;;;3.06;77.45;100026.16;1748508;79;21642;-75
2021/01/23 09:48:20;;;;;;;30.97;20.37;;;;;;;3.18;77.26;100023.05;1732623;81;21223;-74
2021/01/23 09:50:48;;;;;;;28.90;19.48;;;;;;;3.29;76.99;100022.80;1748754;81;21662;-74
2021/01/23 09:53:16;;;;;;;28.30;18.67;;;;;;;3.38;76.83;100026.77;1761533;79;21218;-75
2021/01/23 09:55:44;;;;;;;27.22;18.05;;;;;;;3.50;76.46;100025.51;1765668;79;21675;-74
2021/01/23 09:58:13;;;;;;;27.42;18.05;;;;;;;3.51;76.20;100025.27;1760800;81;21231;-76
2021/01/23 10:00:41;;;;;;;28.02;19.05;;;;;;;3.56;76.06;100021.98;1749918;81;21663;-75
2021/01/23 10:03:08;;;;;;;30.55;19.67;;;;;;;3.62;75.85;100018.45;1788297;79;21207;-74
2021/01/23 10:05:36;;;;;;;28.92;19.62;;;;;;;3.67;75.60;100021.72;1751108;79;21166;-77
2021/01/23 10:08:05;;;;;;;27.85;19.37;;;;;;;3.71;75.39;100021.55;1766040;79;21275;-75
2021/01/23 10:10:34;;;;;;;25.70;17.27;;;;;;;3.74;75.16;100019.78;1749374;79;21261;-74
2021/01/23 10:13:02;;;;;;;28.65;18.52;;;;;;;3.76;74.83;100019.06;1756329;80;21175;-73
2021/01/23 10:15:32;;;;;;;30.32;19.02;;;;;;;3.75;74.66;100015.62;1770666;79;21222;-74
2021/01/23 10:18:01;;;;;;;29.18;19.77;;;;;;;3.74;74.55;100015.30;1765553;79;21211;-73
2021/01/23 10:20:30;;;;;;;32.40;19.80;;;;;;;3.78;74.50;100018.30;1737667;79;21321;-75
2021/01/23 10:22:59;;;;;;;27.17;18.35;;;;;;;3.82;74.25;100014.20;1769578;79;21203;-73
2021/01/23 10:25:29;;;;;;;28.12;19.15;;;;;;;3.79;74.07;100009.36;1763587;79;22496;-74
2021/01/23 10:27:57;;;;;;;30.17;18.87;;;;;;;3.72;73.95;100014.74;1739434;81;21293;-73
2021/01/23 10:30:25;;;;;;;32.70;19.62;;;;;;;3.67;73.89;100018.56;1760599;80;21235;-73
2021/01/23 10:32:55;;;;;;;29.07;19.65;;;;;;;3.66;73.92;100024.08;1737508;81;21195;-74
2021/01/23 10:35:23;;;;;;;29.40;19.80;;;;;;;3.65;73.98;100024.60;1762278;80;21195;-73
2021/01/23 10:37:50;;;;;;;28.92;19.37;;;;;;;3.65;73.97;100023.77;1752597;81;21191;-74
2021/01/23 10:40:19;;;;;;;33.38;21.17;;;;;;;3.61;73.91;100024.73;1727353;81;22053;-74
2021/01/23 10:42:47;;;;;;;32.17;19.55;;;;;;;3.56;73.92;100010.61;1758421;80;21646;-74
2021/01/23 10:45:16;;;;;;;28.92;19.65;;;;;;;3.39;73.83;100016.52;1759727;79;21286;-74
2021/01/23 10:47:44;;;;;;;29.75;19.55;;;;;;;3.31;74.24;100002.80;1747273;81;21249;-74
2021/01/23 10:50:13;;;;;;;25.85;16.20;;;;;;;3.25;74.34;100011.09;1757823;79;21611;-75
2021/01/23 10:52:41;;;;;;;25.68;17.55;;;;;;;3.10;74.59;100002.77;1759394;80;21284;-75
2021/01/23 10:55:11;;;;;;;28.45;18.82;;;;;;;2.93;74.88;100001.20;1764628;79;21123;-75
2021/01/23 10:57:38;;;;;;;29.65;17.95;;;;;;;2.82;75.25;99996.16;1753938;79;21679;-74
2021/01/23 11:00:08;;;;;;;31.07;19.45;;;;;;;2.84;75.57;99994.13;1754037;80;21606;-75
2021/01/23 11:02:40;;;;;;;27.22;18.92;;;;;;;2.93;75.76;99988.85;1761635;79;21222;-74
2021/01/23 11:05:10;;;;;;;31.12;19.70;;;;;;;3.10;75.84;99985.61;1761313;79;21158;-74
2021/01/23 11:07:39;;;;;;;29.95;19.98;;;;;;;3.20;75.75;99985.89;1756787;79;21184;-73
2021/01/23 11:10:10;;;;;;;28.35;17.85;;;;;;;3.27;75.72;99978.69;1764359;79;21238;-74
2021/01/23 11:12:38;;;;;;;27.50;18.17;;;;;;;3.29;75.53;99976.62;1755504;80;21243;-74
2021/01/23 11:15:09;;;;;;;29.00;18.52;;;;;;;3.24;75.58;99974.66;1742615;79;21203;-75
2021/01/23 11:17:38;;;;;;;28.12;19.67;;;;;;;3.27;75.64;99977.38;1753298;79;21505;-76
2021/01/23 11:20:09;;;;;;;28.73;17.80;;;;;;;3.32;75.67;99970.89;1765096;79;21175;-74
2021/01/23 11:22:37;;;;;;;22.07;14.18;;;;;;;3.39;75.59;99971.63;1759992;80;21378;-73
2021/01/23 11:25:06;;;;;;;27.62;18.35;;;;;;;3.31;75.35;99966.66;1757337;79;21200;-75
2021/01/23 11:27:35;;;;;;;29.65;18.87;;;;;;;3.16;75.54;99973.66;1750808;79;21144;-76
2021/01/23 11:30:05;;;;;;;26.00;16.97;;;;;;;3.18;75.70;99976.06;1763802;79;21163;-76
2021/01/23 11:32:34;;;;;;;22.30;14.60;;;;;;;3.18;75.65;99973.42;1757361;79;21246;-73
2021/01/23 11:35:03;;;;;;;25.15;16.80;;;;;;;3.18;75.68;99966.83;1732426;81;21309;-74